ADDS METAR Data INFO
IDs: Format: Raw Decoded Include TAF

Data at: 0840 UTC 21 Oct 2017

KW78 210835Z AUTO 00000KT 10SM CLR 07/06 A3027 RMK AO1 T00710064
KW78 210815Z AUTO 00000KT 10SM CLR 07/07 A3027 RMK AO1 T00720065
KW78 210755Z AUTO 00000KT 10SM CLR 07/07 A3027 RMK AO1 T00730066
KW78 210735Z AUTO 00000KT 10SM CLR 08/07 A3027 RMK AO1 T00750068
KW78 210715Z AUTO 00000KT 10SM CLR 08/07 A3027 RMK AO1 T00800072
KW78 210655Z AUTO 00000KT 10SM CLR 08/07 A3027 RMK AO1 T00800072
KW78 210635Z AUTO 00000KT 10SM CLR 09/08 A3027 RMK AO1 T00870080
KW78 210615Z AUTO 00000KT 10SM CLR 08/08 A3027 RMK AO1 T00840076
KW78 210555Z AUTO 00000KT 10SM CLR 09/08 A3027 RMK AO1 T00860080 10153 20086
KW78 210535Z AUTO 00000KT 10SM CLR 09/08 A3027 RMK AO1 T00900082
KW78 210515Z AUTO 00000KT 10SM CLR 09/08 A3028 RMK AO1 T00880081
KW78 210455Z AUTO 00000KT 10SM CLR 09/08 A3027 RMK AO1 T00870080 402590032
KW78 210435Z AUTO 00000KT 10SM CLR 09/09 A3026 RMK AO1 T00940087
KW78 210415Z AUTO 00000KT 10SM CLR 10/09 A3026 RMK AO1 T00980091
KW78 210355Z AUTO 00000KT 10SM CLR 10/09 A3026 RMK AO1 T01010094
KW78 210335Z AUTO 00000KT 10SM CLR 10/09 A3026 RMK AO1 T01000093
KW78 210315Z AUTO 00000KT 10SM CLR 10/10 A3026 RMK AO1 T01030096
KW78 210255Z AUTO 00000KT 10SM CLR 11/11 A3025 RMK AO1 T01120106
KW78 210235Z AUTO 00000KT 10SM CLR 11/10 A3025 RMK AO1 T01090102
KW78 210210Z AUTO 00000KT 10SM CLR 12/11 A3024 RMK AO1 T01160108
KW78 210155Z AUTO 00000KT 10SM CLR 12/10 A3023 RMK AO1 T01180104
KW78 210135Z AUTO 00000KT 10SM CLR 12/11 A3023 RMK AO1 T01180110
KW78 210115Z AUTO 00000KT 10SM CLR 13/10 A3022 RMK AO1 T01250102
KW78 210055Z AUTO 00000KT 10SM CLR 14/11 A3022 RMK AO1 T01350105
KW78 210035Z AUTO 00000KT 10SM CLR 13/12 A3022 RMK AO1 T01340122
KW78 210015Z AUTO 00000KT 10SM CLR 14/11 A3022 RMK AO1 T01440107
KW78 202355Z AUTO 00000KT 10SM CLR 16/10 A3022 RMK AO1 T01560095 10259 20155
KW78 202335Z AUTO 00000KT 10SM CLR 16/10 A3022 RMK AO1 T01590097
KW78 202315Z AUTO 00000KT 10SM CLR 17/10 A3021 RMK AO1 T01740096
KW78 202255Z AUTO 00000KT 10SM CLR 19/09 A3020 RMK AO1 T01870092
KW78 202235Z AUTO 00000KT 10SM CLR 20/09 A3020 RMK AO1 T02000090
KW78 202215Z AUTO 00000KT 10SM CLR 22/09 A3020 RMK AO1 T02230087
KW78 202155Z AUTO 00000KT 10SM CLR 24/09 A3019 RMK AO1 T02390094
KW78 202135Z AUTO 00000KT 10SM CLR 25/07 A3020 RMK AO1 T02500069
KW78 202115Z AUTO 00000KT 10SM CLR 25/07 A3020 RMK AO1 T02500068
KW78 202055Z AUTO 00000KT 10SM CLR 25/06 A3020 RMK AO1 T02510064
KW78 202035Z AUTO 30003KT 10SM CLR 25/07 A3020 RMK AO1 T02540069
KW78 202015Z AUTO 00000KT 7SM CLR 26/07 A3020 RMK AO1 T02560068
KW78 201955Z AUTO 00000KT 10SM CLR 25/06 A3020 RMK AO1 T02540064
KW78 201935Z AUTO 29003KT 10SM CLR 25/07 A3020 RMK AO1 T02520065
KW78 201915Z AUTO 30004KT 10SM CLR 26/07 A3020 RMK AO1 T02570069
KW78 201855Z AUTO 00000KT 10SM CLR 26/07 A3021 RMK AO1 T02590067
KW78 201835Z AUTO 00000KT 10SM CLR 25/06 A3022 RMK AO1 T02530064
KW78 201815Z AUTO 30004KT 10SM CLR 25/06 A3022 RMK AO1 T02520061
KW78 201755Z AUTO 00000KT 10SM CLR 25/07 A3023 RMK AO1 T02460067 10249 20040
KW78 201735Z AUTO 00000KT 10SM CLR 24/07 A3024 RMK AO1 T02410067
KW78 201715Z AUTO 00000KT 10SM CLR 24/07 A3025 RMK AO1 T02430072
KW78 201655Z AUTO 00000KT 10SM CLR 23/07 A3026 RMK AO1 T02340070
KW78 201635Z AUTO 00000KT 10SM CLR 24/06 A3027 RMK AO1 T02360064
KW78 201615Z AUTO 00000KT 10SM CLR 23/06 A3028 RMK AO1 T02320056
KW78 201555Z AUTO 36003KT 10SM CLR 23/07 A3028 RMK AO1 T02260074
KW78 201535Z AUTO 00000KT 10SM CLR 21/08 A3029 RMK AO1 T02140079
KW78 201515Z AUTO 33003KT 10SM CLR 21/08 A3029 RMK AO1 T02060080
KW78 201455Z AUTO 00000KT 10SM CLR 20/08 A3029 RMK AO1 T02030080
KW78 201435Z AUTO 32003KT 10SM CLR 19/08 A3030 RMK AO1 T01930080
KW78 201415Z AUTO 00000KT 10SM CLR 17/10 A3030 RMK AO1 T01670097
KW78 201355Z AUTO 00000KT 10SM CLR 14/09 A3029 RMK AO1 T01390093
KW78 201335Z AUTO 00000KT 10SM CLR 12/09 A3029 RMK AO1 T01170086
KW78 201315Z AUTO 00000KT 10SM CLR 10/09 A3028 RMK AO1 T01010090
KW78 201255Z AUTO 00000KT 10SM CLR 09/08 A3028 RMK AO1 T00870080
KW78 201235Z AUTO 00000KT 10SM CLR 07/06 A3028 RMK AO1 T00700063
KW78 201215Z AUTO 00000KT 10SM CLR 06/05 A3027 RMK AO1 T00550048
KW78 201155Z AUTO 00000KT 10SM CLR 04/03 A3026 RMK AO1 70014 T00360030 10061 20032
KW78 201135Z AUTO 00000KT 10SM CLR 03/03 A3025 RMK AO1 T00330026
KW78 201115Z AUTO 00000KT 10SM CLR 04/03 A3025 RMK AO1 T00390032
KW78 201055Z AUTO 00000KT 10SM CLR 04/03 A3024 RMK AO1 T00400032
KW78 201035Z AUTO 00000KT 10SM CLR 04/03 A3024 RMK AO1 T00390032
KW78 201015Z AUTO 00000KT 7SM CLR 04/03 A3023 RMK AO1 T00370030
KW78 200955Z AUTO 00000KT 10SM CLR 05/04 A3022 RMK AO1 T00450037
KW78 200935Z AUTO 00000KT 10SM CLR 04/03 A3021 RMK AO1 T00380031
KW78 200915Z AUTO 00000KT 10SM CLR 04/03 A3021 RMK AO1 T00400033
KW78 200855Z AUTO 00000KT 10SM CLR 05/04 A3021 RMK AO1 T00450038
KW78 200835Z AUTO 34003KT 10SM CLR 05/04 A3020 RMK AO1 T00510044
KW78 200815Z AUTO 00000KT 7SM CLR 05/04 A3020 RMK AO1 T00460040
KW78 200755Z AUTO 00000KT 10SM CLR 06/05 A3020 RMK AO1 T00560049
KW78 200735Z AUTO 00000KT 10SM CLR 06/05 A3020 RMK AO1 T00550048
KW78 200715Z AUTO 00000KT 10SM CLR 05/04 A3020 RMK AO1 T00480041
KW78 200655Z AUTO 00000KT 10SM CLR 05/04 A3020 RMK AO1 T00500043
KW78 200635Z AUTO 00000KT 3SM CLR 06/05 A3020 RMK AO1 T00600053
KW78 200615Z AUTO 00000KT 10SM CLR 06/05 A3020 RMK AO1 T00550048
KW78 200555Z AUTO 00000KT 10SM CLR 06/05 A3020 RMK AO1 T00600053 10131 20054
KW78 200535Z AUTO 00000KT 10SM CLR 06/05 A3021 RMK AO1 T00560048
KW78 200515Z AUTO 00000KT 10SM CLR 06/05 A3021 RMK AO1 T00600052
KW78 200455Z AUTO 00000KT 10SM CLR 07/06 A3021 RMK AO1 T00680061 402420005
KW78 200435Z AUTO 00000KT 10SM CLR 07/06 A3020 RMK AO1 T00660060
KW78 200415Z AUTO 00000KT 10SM CLR 07/07 A3021 RMK AO1 T00720065
KW78 200355Z AUTO 00000KT 10SM CLR 07/06 A3021 RMK AO1 T00710064
KW78 200335Z AUTO 00000KT 10SM CLR 07/07 A3021 RMK AO1 T00730066
KW78 200315Z AUTO 00000KT 10SM CLR 08/07 A3021 RMK AO1 T00750067
KW78 200255Z AUTO 00000KT 10SM CLR 07/07 A3022 RMK AO1 T00730066
KW78 200235Z AUTO 00000KT 10SM CLR 08/07 A3022 RMK AO1 T00800074
KW78 200215Z AUTO 00000KT 10SM CLR 09/08 A3022 RMK AO1 T00920084
KW78 200155Z AUTO 00000KT 10SM CLR 10/09 A3022 RMK AO1 T01010093
KW78 200135Z AUTO 00000KT 10SM CLR 09/08 A3021 RMK AO1 T00920081
KW78 200115Z AUTO 00000KT 10SM CLR 10/07 A3021 RMK AO1 T00960071
KW78 200055Z AUTO 00000KT 10SM CLR 11/07 A3021 RMK AO1 T01060069
KW78 200035Z AUTO 00000KT 10SM CLR 11/07 A3021 RMK AO1 T01090069
KW78 200015Z AUTO 00000KT 10SM CLR 12/07 A3020 RMK AO1 T01150069
KW78 192355Z AUTO 00000KT 10SM CLR 13/07 A3020 RMK AO1 T01300070 10242 20128
KW78 192335Z AUTO 00000KT 10SM CLR 14/07 A3020 RMK AO1 T01400074
KW78 192315Z AUTO 00000KT 10SM CLR 15/08 A3020 RMK AO1 T01450079
KW78 192255Z AUTO 00000KT 10SM CLR 17/07 A3019 RMK AO1 T01650073
KW78 192235Z AUTO 00000KT 10SM CLR 18/07 A3019 RMK AO1 T01820070
KW78 192215Z AUTO 00000KT 10SM CLR 20/06 A3019 RMK AO1 T02020062
KW78 192155Z AUTO 00000KT 10SM CLR 22/04 A3020 RMK AO1 T02200039
KW78 192135Z AUTO 00000KT 10SM CLR 23/04 A3020 RMK AO1 T02300042
KW78 192115Z AUTO 22003KT 10SM CLR 23/03 A3019 RMK AO1 T02330031
KW78 192055Z AUTO 00000KT 10SM CLR 24/03 A3020 RMK AO1 T02350029